Terminal Aerodrome Forecast
Issued by NWS

Home | Current Version | Previous Version | Text Only | Print | Product List | Glossary On
Versions: 1 2 3 4 5 6 7 8 9 10 11 12 13 14
234
FTUS45 KRIW 281125
TAFCPR
TAF
KCPR 281125Z 2812/2912 36007KT P6SM VCSH SCT035 BKN060
      TEMPO 2812/2816 -RA SCT017 BKN028
     FM281600 02010G17KT P6SM -RA SCT013 BKN023
     FM290100 02008KT P6SM VCSH SCT023 BKN040
     FM290800 24006KT P6SM VCFG SCT007 SCT060=

USA.gov is the U.S. government's official web portal to all federal, state and local government web resources and services.